Time;durP1;ratioP1;P1;durP2;ratioP2;P2;SDS_P1;SDS_P2;PMS_P1;PMS_P2;Temp;Humidity;BMP_temperature;BMP_pressure;BME280_temperature;BME280_humidity;BME280_pressure;Samples;Min_cycle;Max_cycle;Signal;HPM_P1;HPM_P2
2022/04/26 03:36:47;;;;;;;;;;;;;;;14.09;51.15;99269.19;4482403;31;32697;-69
2022/04/26 03:39:19;;;;;;;;;;;;;;;13.58;52.46;99259.75;4484954;31;34005;-69
2022/04/26 03:41:49;;;;;;;;;;;;;;;13.71;52.14;99266.50;4487439;31;33093;-71
2022/04/26 03:44:18;;;;;;;;;;;;;;;13.60;52.59;99266.69;4495228;31;33527;-71
2022/04/26 03:46:47;;;;;;;;;;;;;;;13.92;51.28;99262.75;4481068;31;35100;-70
2022/04/26 03:49:15;;;;;;;;;;;;;;;13.74;51.83;99278.81;4491783;31;34574;-68
2022/04/26 03:51:45;;;;;;;;;;;;;;;13.62;52.28;99271.91;4480759;31;36704;-69
2022/04/26 03:54:13;;;;;;;;;;;;;;;13.66;52.14;99279.53;4485147;31;34217;-68
2022/04/26 03:56:42;;;;;;;;;;;;;;;13.74;51.82;99290.44;4483985;31;34182;-68
2022/04/26 03:59:12;;;;;;;;;;;;;;;13.38;53.08;99291.19;4496872;31;34634;-68
2022/04/26 04:01:41;;;;;;;;;;;;;;;13.50;52.70;99300.81;4489873;31;35144;-68
2022/04/26 04:04:10;;;;;;;;;;;;;;;13.25;53.63;99297.72;4493120;31;33737;-69
2022/04/26 04:06:38;;;;;;;;;;;;;;;13.33;53.69;99304.25;4481557;31;34317;-76
2022/04/26 04:09:07;;;;;;;;;;;;;;;13.46;53.21;99307.47;4474118;31;34452;-69
2022/04/26 04:11:36;;;;;;;;;;;;;;;13.60;52.88;99307.00;4483926;31;34524;-70
2022/04/26 04:14:04;;;;;;;;;;;;;;;13.56;53.15;99307.47;4469866;31;31972;-71
2022/04/26 04:16:33;;;;;;;;;;;;;;;13.52;53.64;99305.06;4484385;31;33471;-72
2022/04/26 04:19:19;;;;;;;;;;;;;;;13.49;53.99;99309.88;4481425;31;33653;-72
2022/04/26 04:21:53;;;;;;;;;;;;;;;13.90;52.21;99308.66;4489802;31;33661;-74
2022/04/26 04:24:23;;;;;;;;;;;;;;;13.81;52.40;99312.22;4482726;31;33699;-70
2022/04/26 04:26:51;;;;;;;;;;;;;;;14.09;51.71;99313.13;4479275;31;34122;-71
2022/04/26 04:29:20;;;;;;;;;;;;;;;13.97;52.08;99315.13;4482048;31;35214;-69
2022/04/26 04:31:49;;;;;;;;;;;;;;;14.14;51.99;99326.12;4485884;31;34366;-70
2022/04/26 04:34:18;;;;;;;;;;;;;;;13.83;52.64;99330.87;4485954;31;35595;-71
2022/04/26 04:36:47;;;;;;;;;;;;;;;14.07;52.04;99336.63;4497422;31;34968;-70
2022/04/26 04:39:19;;;;;;;;;;;;;;;14.14;52.47;99332.34;4480907;31;34200;-71
2022/04/26 04:41:48;;;;;;;;;;;;;;;14.30;51.73;99338.94;4491979;31;34249;-71
2022/04/26 04:44:18;;;;;;;;;;;;;;;14.15;51.73;99339.41;4487084;31;32260;-71
2022/04/26 04:46:46;;;;;;;;;;;;;;;14.22;52.05;99339.66;4471868;31;35216;-72
2022/04/26 04:49:15;;;;;;;;;;;;;;;14.63;50.62;99351.84;4487298;31;33692;-71
2022/04/26 04:51:45;;;;;;;;;;;;;;;14.35;51.62;99352.78;4483628;31;33997;-70
2022/04/26 04:54:14;;;;;;;;;;;;;;;14.16;51.86;99353.75;4483914;31;34518;-70
2022/04/26 04:56:42;;;;;;;;;;;;;;;13.93;52.79;99355.91;4494003;31;33759;-71
2022/04/26 04:59:11;;;;;;;;;;;;;;;14.21;52.22;99362.19;4485453;31;34304;-71
2022/04/26 05:01:40;;;;;;;;;;;;;;;14.36;51.62;99354.50;4489789;31;33125;-70
2022/04/26 05:04:09;;;;;;;;;;;;;;;14.51;51.38;99355.75;4487517;31;33706;-70
2022/04/26 05:06:38;;;;;;;;;;;;;;;14.55;51.19;99367.06;4492471;31;33456;-71
2022/04/26 05:09:08;;;;;;;;;;;;;;;14.49;51.52;99368.47;4487570;31;34409;-71
2022/04/26 05:11:42;;;;;;;;;;;;;;;14.34;52.40;99368.09;4484097;31;33264;-71
2022/04/26 05:14:10;;;;;;;;;;;;;;;13.81;52.72;99379.47;4485533;31;32464;-71
2022/04/26 05:16:38;;;;;;;;;;;;;;;14.55;50.75;99378.69;4488224;31;35043;-71
2022/04/26 05:19:06;;;;;;;;;;;;;;;14.76;50.67;99383.81;4489436;31;34202;-69
2022/04/26 05:21:35;;;;;;;;;;;;;;;14.75;50.50;99390.19;4492795;31;33179;-70
2022/04/26 05:26:50;;;;;;;;;;;;;;;14.81;51.15;99388.75;4495866;31;34182;-71
2022/04/26 05:29:18;;;;;;;;;;;;;;;14.78;50.83;99394.44;4482479;31;34195;-71
2022/04/26 05:31:46;;;;;;;;;;;;;;;15.36;49.37;99391.37;4489767;31;34750;-69
2022/04/26 05:34:14;;;;;;;;;;;;;;;15.28;49.40;99392.16;4487435;31;33845;-71
2022/04/26 05:36:42;;;;;;;;;;;;;;;15.51;49.01;99391.69;4470698;31;35196;-72
2022/04/26 05:39:10;;;;;;;;;;;;;;;15.80;48.29;99386.91;4478784;31;32591;-70
2022/04/26 05:41:44;;;;;;;;;;;;;;;15.46;49.28;99396.69;4482309;31;34554;-71
2022/04/26 05:44:12;;;;;;;;;;;;;;;15.88;48.11;99388.81;4470544;31;34546;-71
2022/04/26 05:46:41;;;;;;;;;;;;;;;16.26;46.80;99397.50;4491419;31;35025;-71
2022/04/26 05:49:10;;;;;;;;;;;;;;;15.99;48.03;99398.50;4482677;31;34323;-70
2022/04/26 05:51:38;;;;;;;;;;;;;;;16.16;47.76;99391.37;4484403;31;34073;-70
2022/04/26 05:54:06;;;;;;;;;;;;;;;15.88;47.77;99394.19;4482720;31;34451;-70
2022/04/26 05:56:37;;;;;;;;;;;;;;;16.07;47.23;99394.00;4497078;31;34918;-71
2022/04/26 05:59:06;;;;;;;;;;;;;;;16.26;47.04;99403.75;4485659;31;33156;-72
2022/04/26 06:01:35;;;;;;;;;;;;;;;15.22;49.89;99400.84;4490111;31;34442;-70
2022/04/26 06:04:05;;;;;;;;;;;;;;;15.70;49.28;99405.03;4482036;31;35623;-72
2022/04/26 06:06:35;;;;;;;;;;;;;;;15.86;47.95;99401.63;4492625;31;33189;-72
2022/04/26 06:09:03;;;;;;;;;;;;;;;15.94;47.54;99401.66;4481126;31;33012;-69
2022/04/26 06:11:32;;;;;;;;;;;;;;;15.88;47.51;99410.38;4485038;31;35441;-71
2022/04/26 06:14:01;;;;;;;;;;;;;;;15.57;48.80;99412.66;4472261;31;33663;-70
2022/04/26 06:16:29;;;;;;;;;;;;;;;15.83;47.77;99402.78;4483718;31;34186;-70
2022/04/26 06:18:58;;;;;;;;;;;;;;;15.40;49.75;99417.00;4470692;31;33177;-70
2022/04/26 06:21:26;;;;;;;;;;;;;;;14.90;50.96;99414.81;4478795;31;34072;-70
2022/04/26 06:23:54;;;;;;;;;;;;;;;15.99;48.38;99409.31;4480616;31;32547;-70
2022/04/26 06:26:22;;;;;;;;;;;;;;;15.07;50.58;99416.69;4480088;31;33092;-70
2022/04/26 06:28:51;;;;;;;;;;;;;;;14.60;51.44;99403.31;4486263;31;34022;-69
2022/04/26 06:31:19;;;;;;;;;;;;;;;14.78;51.50;99403.38;4480076;31;33170;-70
2022/04/26 06:33:47;;;;;;;;;;;;;;;14.87;51.04;99402.47;4487795;31;32266;-70
2022/04/26 06:36:15;;;;;;;;;;;;;;;15.13;51.39;99399.91;4495753;31;32688;-71
2022/04/26 06:38:43;;;;;;;;;;;;;;;15.74;49.16;99394.78;4498485;31;34623;-69
2022/04/26 06:41:12;;;;;;;;;;;;;;;15.89;48.62;99404.00;4489480;31;33098;-70
2022/04/26 06:43:43;;;;;;;;;;;;;;;16.00;48.16;99406.44;4481691;31;34421;-72
2022/04/26 06:46:13;;;;;;;;;;;;;;;16.32;47.28;99402.25;4482373;31;32881;-71
2022/04/26 06:48:43;;;;;;;;;;;;;;;16.55;47.24;99394.44;4483211;31;34259;-71
2022/04/26 06:51:11;;;;;;;;;;;;;;;16.48;46.63;99404.22;4481410;31;34587;-69
2022/04/26 06:53:39;;;;;;;;;;;;;;;16.39;47.25;99397.91;4480100;31;33903;-71
2022/04/26 06:56:07;;;;;;;;;;;;;;;16.26;47.40;99402.91;4485923;31;32884;-71
2022/04/26 06:58:35;;;;;;;;;;;;;;;16.59;47.28;99408.47;4480608;31;34009;-71
2022/04/26 07:01:04;;;;;;;;;;;;;;;16.86;45.73;99413.72;4488419;31;34586;-70
2022/04/26 07:03:52;;;;;;;;;;;;;;;16.80;45.05;99416.22;4476263;31;32531;-72
2022/04/26 07:06:21;;;;;;;;;;;;;;;16.31;46.00;99422.19;4487536;31;34039;-72
2022/04/26 07:08:49;;;;;;;;;;;;;;;16.69;45.92;99417.31;4481776;31;34462;-71
2022/04/26 07:11:18;;;;;;;;;;;;;;;16.56;46.05;99417.75;4483577;31;34482;-70
2022/04/26 07:13:46;;;;;;;;;;;;;;;16.86;45.02;99418.28;4480829;32;34519;-70
2022/04/26 07:16:14;;;;;;;;;;;;;;;16.53;45.78;99416.25;4481858;32;34337;-70
2022/04/26 07:18:42;;;;;;;;;;;;;;;16.33;47.93;99420.16;4480574;32;34605;-70
2022/04/26 07:21:17;;;;;;;;;;;;;;;16.86;46.00;99423.69;4483271;31;34570;-72
2022/04/26 07:23:45;;;;;;;;;;;;;;;16.88;45.21;99419.78;4480868;32;33699;-70
2022/04/26 07:26:13;;;;;;;;;;;;;;;16.46;46.03;99425.12;4481017;31;33972;-71
2022/04/26 07:28:42;;;;;;;;;;;;;;;16.53;45.90;99427.03;4488582;31;33332;-72
2022/04/26 07:31:11;;;;;;;;;;;;;;;16.99;44.93;99424.91;4489275;31;34607;-71
2022/04/26 07:36:28;;;;;;;;;;;;;;;16.89;44.27;99426.91;4483311;31;33211;-70
2022/04/26 07:38:58;;;;;;;;;;;;;;;17.16;43.70;99433.91;4483256;31;34406;-70
2022/04/26 07:41:27;;;;;;;;;;;;;;;17.18;43.45;99440.00;4497359;31;33089;-70
2022/04/26 07:43:57;;;;;;;;;;;;;;;17.24;43.57;99433.09;4489219;31;33607;-70
2022/04/26 07:46:25;;;;;;;;;;;;;;;17.40;44.97;99435.84;4473774;31;33983;-72
2022/04/26 07:48:55;;;;;;;;;;;;;;;16.94;45.48;99446.16;4481719;31;33285;-72
2022/04/26 07:51:24;;;;;;;;;;;;;;;17.35;42.65;99437.34;4491102;31;32935;-70
2022/04/26 07:53:54;;;;;;;;;;;;;;;17.99;40.80;99440.31;4474708;31;32380;-70
2022/04/26 07:56:24;;;;;;;;;;;;;;;17.96;40.99;99437.94;4484197;31;34482;-70
2022/04/26 07:58:52;;;;;;;;;;;;;;;18.14;41.74;99449.47;4479594;32;32836;-70
2022/04/26 08:01:20;;;;;;;;;;;;;;;18.06;41.91;99447.59;4467479;32;32823;-71
2022/04/26 08:03:50;;;;;;;;;;;;;;;18.06;42.20;99454.88;4479793;31;32623;-71
2022/04/26 08:06:19;;;;;;;;;;;;;;;18.61;40.33;99457.66;4481276;31;33984;-70
2022/04/26 08:08:48;;;;;;;;;;;;;;;18.60;40.26;99457.84;4485803;31;34431;-71
2022/04/26 08:11:18;;;;;;;;;;;;;;;18.68;39.36;99457.81;4483050;31;34518;-70
2022/04/26 08:13:50;;;;;;;;;;;;;;;18.45;39.72;99452.28;4489887;31;32289;-71
2022/04/26 08:16:24;;;;;;;;;;;;;;;18.65;40.36;99452.75;4499855;31;32714;-70
2022/04/26 08:19:02;;;;;;;;;;;;;;;18.98;38.68;99455.38;4490799;31;33296;-70
2022/04/26 08:21:38;;;;;;;;;;;;;;;19.00;38.73;99456.88;4469224;32;32775;-69
2022/04/26 08:29:53;;;;;;;;;;;;;;;19.45;37.53;99449.03;4497184;31;33161;-71
2022/04/26 08:32:28;;;;;;;;;;;;;;;19.64;36.65;99458.59;4488638;31;33292;-71
2022/04/26 08:35:00;;;;;;;;;;;;;;;19.82;36.52;99455.59;4499779;31;32176;-71
2022/04/26 08:37:31;;;;;;;;;;;;;;;20.21;35.45;99452.72;4496035;31;33753;-74
2022/04/26 08:40:04;;;;;;;;;;;;;;;19.59;34.17;99459.13;4485470;31;32944;-69
2022/04/26 08:42:46;;;;;;;;;;;;;;;19.60;33.58;99468.09;4461906;32;32903;-67
2022/04/26 08:45:20;;;;;;;;;;;;;;;19.82;32.39;99463.75;4485694;32;32171;-68
2022/04/26 08:53:27;;;;;;;;;;;;;;;19.95;32.80;99456.69;4497762;31;33282;-67
2022/04/26 08:56:01;;;;;;;;;;;;;;;20.33;33.46;99464.84;4492895;31;31769;-69
2022/04/26 08:58:35;;;;;;;;;;;;;;;20.46;32.35;99465.06;4475058;31;33264;-70
2022/04/26 09:01:06;;;;;;;;;;;;;;;20.64;32.17;99466.59;4496864;31;34167;-68
2022/04/26 09:03:39;;;;;;;;;;;;;;;20.29;33.57;99462.66;4484675;31;34764;-67
2022/04/26 09:06:15;;;;;;;;;;;;;;;20.59;32.23;99471.75;4495527;31;32113;-67
2022/04/26 09:08:47;;;;;;;;;;;;;;;20.53;31.87;99465.19;4497161;31;34150;-68
2022/04/26 09:11:26;;;;;;;;;;;;;;;20.58;32.68;99465.47;4472913;32;32696;-67
2022/04/26 09:13:56;;;;;;;;;;;;;;;20.62;31.32;99464.06;4484267;31;34459;-66
2022/04/26 09:16:28;;;;;;;;;;;;;;;21.09;29.85;99459.25;4485465;31;33867;-68
2022/04/26 09:19:01;;;;;;;;;;;;;;;21.42;29.92;99462.44;4486723;31;35121;-68
2022/04/26 09:21:35;;;;;;;;;;;;;;;21.51;29.91;99461.31;4494253;31;33148;-69
2022/04/26 09:24:06;;;;;;;;;;;;;;;21.94;28.40;99458.59;4475087;32;34024;-69
2022/04/26 09:26:40;;;;;;;;;;;;;;;21.46;30.36;99460.19;4499437;31;32768;-70
2022/04/26 09:29:20;;;;;;;;;;;;;;;21.37;30.81;99467.59;4471662;31;34559;-69
2022/04/26 09:31:59;;;;;;;;;;;;;;;21.42;30.54;99467.87;4482994;31;33357;-70
2022/04/26 09:34:40;;;;;;;;;;;;;;;21.94;29.30;99465.94;4484342;31;33161;-71
2022/04/26 09:37:12;;;;;;;;;;;;;;;22.48;27.66;99463.47;4485926;31;33716;-71
2022/04/26 09:40:00;;;;;;;;;;;;;;;22.28;28.71;99467.94;4497074;31;33246;-70
2022/04/26 09:42:37;;;;;;;;;;;;;;;22.38;28.42;99465.72;4499644;31;34393;-71
2022/04/26 09:45:07;;;;;;;;;;;;;;;22.21;28.15;99461.56;4489086;31;32324;-71
2022/04/26 09:47:37;;;;;;;;;;;;;;;22.49;27.41;99458.88;4487901;31;33611;-70
2022/04/26 09:50:14;;;;;;;;;;;;;;;22.57;27.58;99456.00;4490100;31;34372;-70
2022/04/26 09:52:44;;;;;;;;;;;;;;;22.88;28.50;99462.91;4480848;31;32677;-69
2022/04/26 09:55:15;;;;;;;;;;;;;;;22.63;29.52;99457.06;4463219;32;32912;-69
2022/04/26 09:57:48;;;;;;;;;;;;;;;22.68;29.19;99454.59;4484690;31;33697;-70
2022/04/26 10:00:24;;;;;;;;;;;;;;;23.03;28.97;99463.66;4485852;31;34071;-69
2022/04/26 10:03:02;;;;;;;;;;;;;;;22.93;29.36;99461.28;4501234;31;35213;-70
2022/04/26 10:05:37;;;;;;;;;;;;;;;23.63;28.16;99458.44;4474130;31;34630;-70
2022/04/26 10:08:19;;;;;;;;;;;;;;;23.78;27.68;99461.00;4475700;31;32601;-71
2022/04/26 10:10:53;;;;;;;;;;;;;;;23.40;27.96;99450.56;4476965;31;35089;-70
2022/04/26 10:13:31;;;;;;;;;;;;;;;23.21;28.28;99447.56;4483646;31;33098;-71
2022/04/26 10:16:08;;;;;;;;;;;;;;;23.33;28.38;99447.81;4472555;31;33325;-70
2022/04/26 10:18:39;;;;;;;;;;;;;;;24.02;27.49;99445.91;4498931;31;32691;-70
2022/04/26 10:21:22;;;;;;;;;;;;;;;23.89;26.93;99438.53;4497201;31;33253;-72
2022/04/26 10:24:03;;;;;;;;;;;;;;;24.24;26.81;99439.19;4469838;31;32544;-69
2022/04/26 10:26:36;;;;;;;;;;;;;;;24.35;26.78;99435.78;4483581;31;34251;-72
2022/04/26 10:29:14;;;;;;;;;;;;;;;24.80;26.82;99430.50;4500480;31;33529;-70
2022/04/26 10:31:58;;;;;;;;;;;;;;;24.05;26.63;99438.13;4486471;31;33927;-70
2022/04/26 10:34:34;;;;;;;;;;;;;;;23.98;27.49;99433.69;4484859;31;34450;-70
2022/04/26 10:37:10;;;;;;;;;;;;;;;24.64;27.27;99428.22;4487690;31;35177;-70
2022/04/26 10:39:49;;;;;;;;;;;;;;;24.17;27.23;99432.84;4483697;31;32781;-69
2022/04/26 10:42:27;;;;;;;;;;;;;;;24.51;26.66;99431.81;4494060;31;34878;-72
2022/04/26 10:45:17;;;;;;;;;;;;;;;23.87;27.29;99427.78;4486584;31;34288;-70
2022/04/26 10:47:48;;;;;;;;;;;;;;;23.83;29.05;99425.69;4485173;32;34166;-70
2022/04/26 10:50:33;;;;;;;;;;;;;;;24.09;28.07;99427.59;4470360;31;32580;-70
2022/04/26 10:53:34;;;;;;;;;;;;;;;24.74;27.66;99419.56;4487568;31;34293;-72
2022/04/26 10:56:08;;;;;;;;;;;;;;;24.99;27.73;99420.53;4485176;31;34994;-72
2022/04/26 10:58:49;;;;;;;;;;;;;;;24.65;27.46;99424.41;4490756;31;34315;-72
2022/04/26 11:01:25;;;;;;;;;;;;;;;24.67;27.56;99416.00;4491252;31;32007;-70
2022/04/26 11:03:56;;;;;;;;;;;;;;;25.14;27.17;99417.56;4491579;31;34459;-70
2022/04/26 11:06:36;;;;;;;;;;;;;;;25.59;26.12;99420.28;4483977;31;34182;-73
2022/04/26 11:09:14;;;;;;;;;;;;;;;25.67;26.01;99414.53;4484490;31;33868;-71
2022/04/26 11:11:52;;;;;;;;;;;;;;;25.52;26.74;99419.47;4464102;31;32078;-72
2022/04/26 11:14:28;;;;;;;;;;;;;;;25.16;27.23;99417.34;4497669;31;34402;-71
2022/04/26 11:17:07;;;;;;;;;;;;;;;25.24;26.63;99419.84;4468978;31;35170;-67
2022/04/26 11:19:40;;;;;;;;;;;;;;;25.36;26.79;99414.50;4484211;31;34494;-67
2022/04/26 11:22:10;;;;;;;;;;;;;;;25.58;26.70;99426.81;4464135;31;32226;-67
2022/04/26 11:28:21;;;;;;;;;;;;;;;25.05;26.94;99418.84;4484419;32;33012;-69
2022/04/26 11:30:39;;;;;;;;;;;;;;;25.23;27.52;99420.88;4480709;31;35110;-70
2022/04/26 11:33:15;;;;;;;;;;;;;;;25.37;26.85;99422.50;4485517;31;32619;-69
2022/04/26 11:35:55;;;;;;;;;;;;;;;24.91;27.14;99418.06;4493794;31;35163;-72
2022/04/26 11:38:27;;;;;;;;;;;;;;;24.48;28.27;99413.09;4484805;31;34286;-69
2022/04/26 11:40:58;;;;;;;;;;;;;;;24.51;28.46;99407.19;4481696;31;34715;-70
2022/04/26 11:43:27;;;;;;;;;;;;;;;24.79;27.98;99415.13;4471997;31;33089;-70
2022/04/26 11:45:55;;;;;;;;;;;;;;;24.82;28.38;99411.97;4488373;31;33267;-72
2022/04/26 11:48:25;;;;;;;;;;;;;;;24.90;27.35;99413.63;4477945;31;33794;-71
2022/04/26 11:50:53;;;;;;;;;;;;;;;25.13;27.80;99401.34;4482059;31;34545;-71
2022/04/26 11:53:22;;;;;;;;;;;;;;;24.36;28.50;99414.75;4463384;32;32520;-70
2022/04/26 11:55:56;;;;;;;;;;;;;;;24.07;28.79;99413.28;4471285;32;32297;-72
2022/04/26 11:58:27;;;;;;;;;;;;;;;24.30;28.55;99405.53;4479602;32;35051;-72
2022/04/26 12:00:56;;;;;;;;;;;;;;;24.45;28.91;99412.69;4478579;31;35239;-69
2022/04/26 12:03:26;;;;;;;;;;;;;;;24.36;28.62;99407.37;4477938;31;32027;-70
2022/04/26 12:05:55;;;;;;;;;;;;;;;24.66;28.26;99411.59;4485668;31;33081;-70
2022/04/26 12:08:23;;;;;;;;;;;;;;;24.17;28.91;99400.03;4476839;31;32994;-70
2022/04/26 12:10:51;;;;;;;;;;;;;;;24.68;27.97;99407.56;4473341;31;33042;-70
2022/04/26 12:13:32;;;;;;;;;;;;;;;23.91;28.98;99409.09;4487864;31;33362;-71
2022/04/26 12:16:13;;;;;;;;;;;;;;;24.24;28.44;99408.22;4483359;31;34057;-70
2022/04/26 12:18:54;;;;;;;;;;;;;;;23.34;29.72;99404.94;4496835;31;34994;-70
2022/04/26 12:21:27;;;;;;;;;;;;;;;23.88;28.93;99401.31;4491888;31;35075;-70
2022/04/26 12:24:13;;;;;;;;;;;;;;;22.78;30.36;99395.88;4480341;31;32875;-70
2022/04/26 12:26:51;;;;;;;;;;;;;;;23.14;29.13;99391.25;4486851;31;32847;-71
2022/04/26 12:29:21;;;;;;;;;;;;;;;23.56;29.46;99387.34;4491343;31;33110;-70
2022/04/26 12:31:53;;;;;;;;;;;;;;;24.03;28.50;99385.53;4485727;31;34514;-71
2022/04/26 12:34:22;;;;;;;;;;;;;;;23.43;28.74;99379.97;4497099;31;34321;-70
2022/04/26 12:36:59;;;;;;;;;;;;;;;23.03;29.53;99376.31;4493934;31;34096;-72
2022/04/26 12:39:41;;;;;;;;;;;;;;;23.13;29.35;99379.47;4496251;31;34449;-71
2022/04/26 12:42:14;;;;;;;;;;;;;;;22.83;29.78;99376.19;4500165;31;33350;-70
2022/04/26 12:44:58;;;;;;;;;;;;;;;23.39;28.65;99370.53;4501806;31;32699;-73
2022/04/26 12:50:29;;;;;;;;;;;;;;;22.97;29.03;99369.78;4485705;31;32574;-69
2022/04/26 12:53:08;;;;;;;;;;;;;;;23.23;28.99;99374.47;4470770;31;33034;-70
2022/04/26 12:55:41;;;;;;;;;;;;;;;23.29;29.29;99369.25;4484602;31;32519;-70
2022/04/26 12:58:15;;;;;;;;;;;;;;;23.23;28.57;99366.28;4485300;31;32742;-70
2022/04/26 13:00:51;;;;;;;;;;;;;;;23.06;29.00;99367.72;4486248;31;36253;-71
2022/04/26 13:03:22;;;;;;;;;;;;;;;23.20;29.42;99355.78;4475113;31;33390;-70
2022/04/26 13:06:03;;;;;;;;;;;;;;;22.76;29.89;99354.34;4483715;31;33160;-70
2022/04/26 13:08:51;;;;;;;;;;;;;;;22.68;30.36;99356.41;4485983;31;33889;-71
2022/04/26 13:11:21;;;;;;;;;;;;;;;22.61;30.38;99355.53;4481332;31;34322;-71
2022/04/26 13:13:51;;;;;;;;;;;;;;;21.96;31.65;99355.72;4485401;31;33351;-73
2022/04/26 13:16:19;;;;;;;;;;;;;;;22.46;30.91;99352.91;4490148;31;33362;-70
2022/04/26 13:18:47;;;;;;;;;;;;;;;22.31;31.65;99356.62;4490721;31;32752;-74
2022/04/26 13:21:14;;;;;;;;;;;;;;;21.73;31.85;99364.09;4480464;31;34018;-71
2022/04/26 13:23:43;;;;;;;;;;;;;;;21.89;32.35;99352.06;4469645;31;34243;-70
2022/04/26 13:26:10;;;;;;;;;;;;;;;22.04;31.49;99355.53;4487138;31;33923;-70
2022/04/26 13:28:38;;;;;;;;;;;;;;;22.00;31.95;99357.00;4466472;31;33025;-71
2022/04/26 13:31:06;;;;;;;;;;;;;;;22.09;30.69;99355.81;4480417;31;34230;-71
2022/04/26 13:33:34;;;;;;;;;;;;;;;21.86;31.74;99360.63;4474677;31;34309;-72
2022/04/26 13:36:01;;;;;;;;;;;;;;;21.93;31.43;99353.37;4484988;31;32573;-73
2022/04/26 13:38:29;;;;;;;;;;;;;;;21.76;32.22;99354.69;4471501;31;33531;-70
2022/04/26 13:40:59;;;;;;;;;;;;;;;21.77;31.74;99349.06;4489856;31;35274;-71
2022/04/26 13:43:27;;;;;;;;;;;;;;;21.92;31.19;99354.41;4480338;31;33211;-71
2022/04/26 13:46:14;;;;;;;;;;;;;;;22.15;30.93;99348.72;4481171;31;34426;-70
2022/04/26 13:48:42;;;;;;;;;;;;;;;22.50;31.25;99352.31;4483349;31;35192;-71
2022/04/26 13:51:09;;;;;;;;;;;;;;;22.73;30.67;99354.75;4484474;31;33427;-70
2022/04/26 13:53:37;;;;;;;;;;;;;;;22.32;31.40;99347.38;4483633;31;34360;-71
2022/04/26 13:56:06;;;;;;;;;;;;;;;22.78;30.76;99351.41;4458056;32;31974;-70
2022/04/26 13:58:34;;;;;;;;;;;;;;;22.31;31.64;99347.56;4489136;31;33164;-70
2022/04/26 14:01:02;;;;;;;;;;;;;;;22.53;31.53;99351.91;4477001;31;34358;-71
2022/04/26 14:03:31;;;;;;;;;;;;;;;22.93;30.87;99349.41;4481264;31;35893;-69
2022/04/26 14:05:59;;;;;;;;;;;;;;;22.47;31.25;99344.56;4485167;31;32035;-70
2022/04/26 14:08:28;;;;;;;;;;;;;;;22.90;31.03;99347.03;4470661;31;33722;-71
2022/04/26 14:10:56;;;;;;;;;;;;;;;22.55;31.27;99346.25;4465515;31;32957;-70
2022/04/26 14:13:25;;;;;;;;;;;;;;;22.64;31.10;99355.13;4480681;31;33416;-71
2022/04/26 14:24:12;;;;;;;;;;;;;;;22.82;30.18;99346.37;4481559;31;32646;-70
2022/04/26 14:26:42;;;;;;;;;;;;;;;22.50;30.71;99349.59;4482475;31;34594;-70
2022/04/26 14:29:11;;;;;;;;;;;;;;;22.41;31.29;99347.25;4489225;31;35469;-70
2022/04/26 14:31:44;;;;;;;;;;;;;;;22.69;30.64;99342.53;4485062;31;34099;-71
2022/04/26 14:34:14;;;;;;;;;;;;;;;22.66;30.80;99347.56;4488538;31;33128;-70
2022/04/26 14:36:42;;;;;;;;;;;;;;;22.95;30.85;99347.31;4487636;31;34678;-70
2022/04/26 14:39:22;;;;;;;;;;;;;;;22.69;30.64;99333.50;4491858;31;35306;-70
2022/04/26 14:41:50;;;;;;;;;;;;;;;22.56;31.62;99340.59;4497363;31;33113;-71
2022/04/26 14:44:17;;;;;;;;;;;;;;;22.60;30.91;99337.47;4478565;31;34620;-70
2022/04/26 14:46:45;;;;;;;;;;;;;;;22.97;30.35;99339.75;4490338;31;34313;-70
2022/04/26 14:49:13;;;;;;;;;;;;;;;23.10;30.35;99335.38;4484644;31;34663;-71
2022/04/26 14:51:41;;;;;;;;;;;;;;;23.48;29.89;99333.78;4481810;31;33134;-71
2022/04/26 14:54:08;;;;;;;;;;;;;;;23.53;29.33;99344.09;4485563;31;33708;-71
2022/04/26 14:56:36;;;;;;;;;;;;;;;23.53;29.24;99335.91;4486630;31;32353;-71
2022/04/26 14:59:20;;;;;;;;;;;;;;;23.59;29.36;99337.78;4480513;31;33952;-70
2022/04/26 15:01:49;;;;;;;;;;;;;;;23.24;29.70;99332.50;4480256;31;32991;-71
2022/04/26 15:04:18;;;;;;;;;;;;;;;23.30;30.13;99333.53;4487312;31;33368;-70
2022/04/26 15:06:46;;;;;;;;;;;;;;;23.57;29.37;99328.97;4482625;31;32528;-70
2022/04/26 15:17:35;;;;;;;;;;;;;;;23.66;29.48;99324.97;4484087;31;34590;-70
2022/04/26 15:20:03;;;;;;;;;;;;;;;23.90;28.83;99323.53;4484176;31;34031;-70
2022/04/26 15:22:30;;;;;;;;;;;;;;;23.52;28.84;99322.44;4481055;31;33044;-72
2022/04/26 15:24:58;;;;;;;;;;;;;;;23.32;30.15;99322.41;4479453;31;34529;-70
2022/04/26 15:27:26;;;;;;;;;;;;;;;23.33;29.65;99315.91;4495877;31;33275;-70
2022/04/26 15:29:54;;;;;;;;;;;;;;;23.53;29.80;99321.38;4468757;31;33172;-71
2022/04/26 15:32:25;;;;;;;;;;;;;;;23.35;29.98;99319.28;4479623;31;35321;-71
2022/04/26 15:34:53;;;;;;;;;;;;;;;23.47;29.35;99310.25;4489307;31;33365;-70
2022/04/26 15:37:21;;;;;;;;;;;;;;;23.31;29.53;99307.94;4479001;31;32698;-71
2022/04/26 15:39:48;;;;;;;;;;;;;;;23.47;28.92;99306.69;4479395;31;34133;-73
2022/04/26 15:42:18;;;;;;;;;;;;;;;23.69;28.92;99301.88;4495416;31;32964;-71
2022/04/26 15:44:46;;;;;;;;;;;;;;;23.68;29.32;99305.63;4462954;31;33488;-70
2022/04/26 15:47:14;;;;;;;;;;;;;;;23.45;29.53;99301.41;4480214;31;32763;-71
2022/04/26 15:49:41;;;;;;;;;;;;;;;23.43;29.52;99305.41;4482660;31;33211;-71
2022/04/26 15:52:09;;;;;;;;;;;;;;;23.31;29.85;99304.38;4471227;32;32770;-70
2022/04/26 15:54:37;;;;;;;;;;;;;;;23.49;30.02;99307.31;4473155;31;34240;-70
2022/04/26 15:57:04;;;;;;;;;;;;;;;23.62;29.61;99309.19;4490425;31;33776;-70
2022/04/26 15:59:32;;;;;;;;;;;;;;;23.51;29.94;99307.09;4484951;31;35155;-74
2022/04/26 16:02:00;;;;;;;;;;;;;;;23.34;30.11;99310.25;4464792;31;34362;-73
2022/04/26 16:04:29;;;;;;;;;;;;;;;23.31;30.79;99307.94;4464106;31;33091;-70
2022/04/26 16:06:58;;;;;;;;;;;;;;;23.38;29.82;99314.22;4482479;31;33409;-70
2022/04/26 16:20:30;;;;;;;;;;;;;;;23.08;30.34;99308.31;4484818;31;34268;-70
2022/04/26 16:23:00;;;;;;;;;;;;;;;23.05;29.99;99305.13;4481925;31;34669;-71
2022/04/26 16:25:28;;;;;;;;;;;;;;;23.27;29.67;99303.91;4486649;31;34085;-69
2022/04/26 16:27:55;;;;;;;;;;;;;;;23.21;29.57;99305.59;4479954;32;32565;-70
2022/04/26 16:30:27;;;;;;;;;;;;;;;23.26;29.56;99307.69;4482678;31;33195;-70
2022/04/26 16:32:56;;;;;;;;;;;;;;;23.27;29.71;99303.06;4479564;32;35153;-70
2022/04/26 16:35:24;;;;;;;;;;;;;;;23.20;30.13;99305.78;4471465;31;34016;-72
2022/04/26 16:37:55;;;;;;;;;;;;;;;23.24;30.27;99305.19;4468413;31;32113;-70
2022/04/26 16:40:22;;;;;;;;;;;;;;;23.30;30.02;99302.66;4491599;31;31812;-70
2022/04/26 16:42:50;;;;;;;;;;;;;;;23.29;30.16;99309.19;4482841;31;34529;-71
2022/04/26 16:45:18;;;;;;;;;;;;;;;23.30;30.38;99306.22;4473342;31;33321;-70
2022/04/26 16:47:51;;;;;;;;;;;;;;;23.32;30.86;99309.59;4490377;31;32475;-70
2022/04/26 16:50:19;;;;;;;;;;;;;;;23.29;30.92;99311.91;4481320;31;34149;-70
2022/04/26 16:52:49;;;;;;;;;;;;;;;23.30;30.98;99316.31;4485914;31;34477;-70
2022/04/26 16:55:17;;;;;;;;;;;;;;;23.30;31.09;99321.78;4487134;31;33341;-72
2022/04/26 16:57:45;;;;;;;;;;;;;;;23.31;30.68;99312.56;4484345;31;33650;-70
2022/04/26 17:00:14;;;;;;;;;;;;;;;23.22;30.77;99315.47;4470626;32;32612;-72
2022/04/26 17:02:42;;;;;;;;;;;;;;;23.25;30.74;99314.22;4467873;32;34213;-73
2022/04/26 17:05:12;;;;;;;;;;;;;;;23.25;31.15;99315.06;4467058;32;34993;-70
2022/04/26 17:07:48;;;;;;;;;;;;;;;23.29;30.81;99312.75;4467743;32;33221;-70
2022/04/26 17:10:17;;;;;;;;;;;;;;;23.30;30.58;99310.84;4467835;32;32840;-70
2022/04/26 17:12:48;;;;;;;;;;;;;;;23.29;30.28;99311.91;4466688;32;34392;-70
2022/04/26 17:15:16;;;;;;;;;;;;;;;23.29;30.31;99320.94;4470544;32;33134;-70
2022/04/26 17:17:45;;;;;;;;;;;;;;;23.22;31.15;99311.91;4468467;32;32540;-70
2022/04/26 17:20:13;;;;;;;;;;;;;;;23.21;31.25;99319.25;4472001;32;33536;-71
2022/04/26 17:22:42;;;;;;;;;;;;;;;23.25;31.93;99325.13;4468073;32;33136;-71
2022/04/26 17:25:13;;;;;;;;;;;;;;;23.21;31.61;99323.84;4469607;32;32953;-72
2022/04/26 17:28:04;;;;;;;;;;;;;;;23.14;31.30;99321.09;4474703;32;33726;-70
2022/04/26 17:30:34;;;;;;;;;;;;;;;23.11;31.36;99323.41;4472482;32;32650;-70
2022/04/26 17:33:02;;;;;;;;;;;;;;;23.08;32.22;99323.81;4466426;32;33332;-73
2022/04/26 17:35:31;;;;;;;;;;;;;;;23.15;31.84;99324.69;4476468;32;34351;-70